createdAt,value
2023-02-18T00:01:49.460Z,13.02
2023-02-18T00:04:19.461Z,13.73
2023-02-18T00:06:48.264Z,13.32
2023-02-18T00:09:16.577Z,13.55
2023-02-18T00:11:43.661Z,13.01
2023-02-18T00:14:15.076Z,13.63
2023-02-18T00:16:42.952Z,13.32
2023-02-18T00:19:13.908Z,13.13
2023-02-18T00:21:44.112Z,13.33
2023-02-18T00:24:17.016Z,14.36
2023-02-18T00:26:47.153Z,13.53
2023-02-18T00:29:16.195Z,13.78
2023-02-18T00:31:43.259Z,13.28
2023-02-18T00:34:10.749Z,13.27
2023-02-18T00:36:37.592Z,13.31
2023-02-18T00:39:07.473Z,13.60
2023-02-18T00:41:35.447Z,13.99
2023-02-18T00:44:02.538Z,13.38
2023-02-18T00:46:29.572Z,13.39
2023-02-18T00:48:56.592Z,13.45
2023-02-18T00:51:25.285Z,13.56
2023-02-18T00:53:52.250Z,13.18
2023-02-18T00:56:19.426Z,13.11
2023-02-18T00:58:46.763Z,13.63
2023-02-18T01:01:14.082Z,13.22
2023-02-18T01:03:42.193Z,13.69
2023-02-18T01:06:10.401Z,13.48
2023-02-18T01:08:37.872Z,13.45
2023-02-18T01:11:06.767Z,13.66
2023-02-18T01:13:33.753Z,13.30
2023-02-18T01:16:00.705Z,13.03
2023-02-18T01:18:30.057Z,13.43
2023-02-18T01:20:57.255Z,13.34
2023-02-18T01:23:24.293Z,13.18
2023-02-18T01:25:51.341Z,13.09
2023-02-18T01:28:18.922Z,13.36
2023-02-18T01:30:45.864Z,14.09
2023-02-18T01:33:12.795Z,13.40
2023-02-18T01:35:40.889Z,13.41
2023-02-18T01:38:08.482Z,13.14
2023-02-18T01:40:35.607Z,13.43
2023-02-18T01:43:02.674Z,13.34
2023-02-18T01:45:49.505Z,13.29
2023-02-18T01:48:54.376Z,13.45
2023-02-18T01:51:29.675Z,13.62
2023-02-18T01:53:58.893Z,13.33
2023-02-18T01:56:36.371Z,13.12
2023-02-18T01:59:07.248Z,13.41
2023-02-18T02:01:34.987Z,14.00
2023-02-18T02:04:02.205Z,14.11
2023-02-18T02:06:28.959Z,13.43
2023-02-18T02:08:58.834Z,13.39
2023-02-18T02:11:37.812Z,13.44
2023-02-18T02:14:26.472Z,13.42
2023-02-18T02:16:57.698Z,13.73
2023-02-18T02:19:36.697Z,13.30
2023-02-18T02:22:28.435Z,13.14
2023-02-18T02:25:24.874Z,13.50
2023-02-18T02:27:57.807Z,13.63
2023-02-18T02:30:45.291Z,13.39
2023-02-18T02:33:43.265Z,13.27
2023-02-18T02:36:15.010Z,13.65
2023-02-18T02:38:59.677Z,13.48
2023-02-18T02:41:42.260Z,13.42
2023-02-18T02:44:17.653Z,13.08
2023-02-18T02:46:46.145Z,12.94
2023-02-18T02:49:16.576Z,13.17
2023-02-18T02:52:25.975Z,12.81
2023-02-18T02:54:52.851Z,13.05
2023-02-18T02:57:19.603Z,13.33
2023-02-18T03:00:19.355Z,13.45
2023-02-18T03:03:09.569Z,12.99
2023-02-18T03:06:14.431Z,13.19
2023-02-18T03:09:06.045Z,12.84
2023-02-18T03:11:41.475Z,12.76
2023-02-18T03:14:24.835Z,12.89
2023-02-18T03:17:00.244Z,12.89
2023-02-18T03:19:35.751Z,12.98
2023-02-18T03:22:12.003Z,13.01
2023-02-18T03:24:42.445Z,12.90
2023-02-18T03:27:15.049Z,13.01
2023-02-18T03:29:44.779Z,12.97
2023-02-18T03:32:13.485Z,12.99
2023-02-18T03:34:44.723Z,12.73
2023-02-18T03:37:12.503Z,12.62
2023-02-18T03:39:42.141Z,13.37
2023-02-18T03:42:09.127Z,13.43
2023-02-18T03:44:36.088Z,13.20
2023-02-18T03:47:02.913Z,12.80
2023-02-18T03:49:29.649Z,12.93
2023-02-18T03:51:56.509Z,12.75
2023-02-18T03:54:23.239Z,12.66
2023-02-18T03:56:50.020Z,12.92
2023-02-18T03:59:16.778Z,12.54
2023-02-18T04:01:43.608Z,12.57
2023-02-18T04:04:10.394Z,12.91
2023-02-18T04:06:37.268Z,12.62
2023-02-18T04:09:08.989Z,12.83
2023-02-18T04:11:38.466Z,12.67
2023-02-18T04:14:05.538Z,12.91
2023-02-18T04:16:32.528Z,12.76
2023-02-18T04:18:59.356Z,12.59
2023-02-18T04:21:26.171Z,12.49
2023-02-18T04:23:52.862Z,12.77
2023-02-18T04:26:19.819Z,12.58
2023-02-18T04:28:48.111Z,13.10
2023-02-18T04:31:15.600Z,12.70
2023-02-18T04:33:42.432Z,12.87
2023-02-18T04:36:10.288Z,12.95
2023-02-18T04:38:37.167Z,13.08
2023-02-18T04:41:04.055Z,12.92
2023-02-18T04:43:30.704Z,13.22
2023-02-18T04:45:57.543Z,12.70
2023-02-18T04:48:24.335Z,12.93
2023-02-18T04:50:51.051Z,13.18
2023-02-18T04:53:17.791Z,12.75
2023-02-18T04:55:49.935Z,12.92
2023-02-18T04:58:16.858Z,12.87
2023-02-18T05:00:43.699Z,12.69
2023-02-18T05:03:10.554Z,12.86
2023-02-18T05:05:37.888Z,12.67
2023-02-18T05:08:05.092Z,12.83
2023-02-18T05:10:31.833Z,12.88
2023-02-18T05:12:58.602Z,12.69
2023-02-18T05:15:25.838Z,12.66
2023-02-18T05:17:52.890Z,12.76
2023-02-18T05:20:19.913Z,12.52
2023-02-18T05:22:46.779Z,12.92
2023-02-18T05:25:13.503Z,13.40
2023-02-18T05:27:40.352Z,13.30
2023-02-18T05:30:07.853Z,12.81
2023-02-18T05:32:34.838Z,13.11
2023-02-18T05:35:01.593Z,13.00
2023-02-18T05:37:28.408Z,12.56
2023-02-18T05:39:55.186Z,12.52
2023-02-18T05:42:23.630Z,12.64
2023-02-18T05:44:50.487Z,12.65
2023-02-18T05:47:17.425Z,12.81
2023-02-18T05:49:44.805Z,12.91
2023-02-18T05:52:13.553Z,12.84
2023-02-18T05:54:40.356Z,12.45
2023-02-18T05:57:07.165Z,12.70
2023-02-18T05:59:34.027Z,12.06
2023-02-18T06:02:00.817Z,13.10
2023-02-18T06:04:27.672Z,12.60
2023-02-18T06:06:54.864Z,12.80
2023-02-18T06:09:21.918Z,12.35
2023-02-18T06:11:48.849Z,12.82
2023-02-18T06:14:15.780Z,12.93
2023-02-18T06:16:42.483Z,12.19
2023-02-18T06:19:09.409Z,12.54
2023-02-18T06:21:36.240Z,12.41
2023-02-18T06:24:03.109Z,12.51
2023-02-18T06:26:30.590Z,13.02
2023-02-18T06:28:57.367Z,13.02
2023-02-18T06:31:24.405Z,12.63
2023-02-18T06:33:51.303Z,12.32
2023-02-18T06:36:18.163Z,12.28
2023-02-18T06:38:46.120Z,12.31
2023-02-18T06:41:15.023Z,12.79
2023-02-18T06:43:41.956Z,12.69
2023-02-18T06:46:09.046Z,12.41
2023-02-18T06:48:36.075Z,12.33
2023-02-18T06:51:03.704Z,12.56
2023-02-18T06:53:30.460Z,12.43
2023-02-18T06:55:57.997Z,12.33
2023-02-18T06:58:25.266Z,13.08
2023-02-18T07:00:52.125Z,12.83
2023-02-18T07:03:19.046Z,12.56
2023-02-18T07:05:46.728Z,13.02
2023-02-18T07:08:13.570Z,12.78
2023-02-18T07:10:40.503Z,12.96
2023-02-18T07:13:07.179Z,12.36
2023-02-18T07:15:34.144Z,12.27
2023-02-18T07:18:00.831Z,13.04
2023-02-18T07:20:28.146Z,12.75
2023-02-18T07:22:55.122Z,12.73
2023-02-18T07:25:23.433Z,12.29
2023-02-18T07:27:51.042Z,12.50
2023-02-18T07:30:19.054Z,12.63
2023-02-18T07:32:46.262Z,13.26
2023-02-18T07:35:16.915Z,13.40
2023-02-18T07:37:47.835Z,12.91
2023-02-18T07:40:18.639Z,13.19
2023-02-18T07:42:45.556Z,12.56
2023-02-18T07:45:13.456Z,12.75
2023-02-18T07:47:41.557Z,12.77
2023-02-18T07:50:09.197Z,12.58
2023-02-18T07:52:35.951Z,12.78
2023-02-18T07:55:02.731Z,12.30
2023-02-18T07:57:30.287Z,12.81
2023-02-18T07:59:57.066Z,13.06
2023-02-18T08:02:24.959Z,13.07
2023-02-18T08:04:52.094Z,12.40
2023-02-18T08:07:19.727Z,12.66
2023-02-18T08:09:46.508Z,12.42
2023-02-18T08:12:13.205Z,13.31
2023-02-18T08:14:40.860Z,12.68
2023-02-18T08:17:07.535Z,12.79
2023-02-18T08:19:34.346Z,13.05
2023-02-18T08:22:04.214Z,13.21
2023-02-18T08:24:31.391Z,13.16
2023-02-18T08:27:01.183Z,13.33
2023-02-18T08:29:29.160Z,12.93
2023-02-18T08:31:58.195Z,13.00
2023-02-18T08:34:25.843Z,13.02
2023-02-18T08:36:52.863Z,13.05
2023-02-18T08:39:19.733Z,12.84
2023-02-18T08:41:46.549Z,12.96
2023-02-18T08:44:15.944Z,12.88
2023-02-18T08:46:42.719Z,13.13
2023-02-18T08:49:10.109Z,13.44
2023-02-18T08:51:36.849Z,13.50
2023-02-18T08:54:03.803Z,13.29
2023-02-18T08:56:31.692Z,12.86
2023-02-18T08:58:59.693Z,12.44
2023-02-18T09:01:27.154Z,12.88
2023-02-18T09:03:54.231Z,12.52
2023-02-18T09:06:21.769Z,12.43
2023-02-18T09:08:48.559Z,12.91
2023-02-18T09:11:15.613Z,13.09
2023-02-18T09:13:42.644Z,12.73
2023-02-18T09:16:14.975Z,12.97
2023-02-18T09:18:41.823Z,12.99
2023-02-18T09:21:09.880Z,13.32
2023-02-18T09:23:37.078Z,13.38
2023-02-18T09:26:09.217Z,13.14
2023-02-18T09:28:36.723Z,13.32
2023-02-18T09:31:10.325Z,13.03
2023-02-18T09:33:38.841Z,13.26
2023-02-18T09:36:05.946Z,13.53
2023-02-18T09:38:32.824Z,13.05
2023-02-18T09:41:01.624Z,12.82
2023-02-18T09:43:44.867Z,13.29
2023-02-18T09:46:20.940Z,13.44
2023-02-18T09:48:48.610Z,13.49
2023-02-18T09:51:16.494Z,13.39
2023-02-18T09:53:47.195Z,13.14
2023-02-18T09:56:20.169Z,13.53
2023-02-18T09:58:47.932Z,13.42
2023-02-18T10:01:31.467Z,13.25
2023-02-18T10:04:01.706Z,13.93
2023-02-18T10:06:33.882Z,13.57
2023-02-18T10:09:04.236Z,13.14
2023-02-18T10:11:34.131Z,13.10
2023-02-18T10:14:02.610Z,13.23
2023-02-18T10:16:29.783Z,13.65
2023-02-18T10:19:01.822Z,13.47
2023-02-18T10:21:32.991Z,12.89
2023-02-18T10:24:01.415Z,13.47
2023-02-18T10:26:31.069Z,13.78
2023-02-18T10:28:58.770Z,12.73
2023-02-18T10:31:38.006Z,13.15
2023-02-18T10:34:15.453Z,13.72
2023-02-18T10:36:47.140Z,13.66
2023-02-18T10:39:48.446Z,12.82
2023-02-18T10:42:38.050Z,13.18
2023-02-18T10:45:19.000Z,13.00
2023-02-18T10:47:56.507Z,13.29
2023-02-18T10:50:37.307Z,13.09
2023-02-18T10:53:23.569Z,13.13
2023-02-18T10:55:50.465Z,13.56
2023-02-18T10:58:35.492Z,13.32
2023-02-18T11:01:05.576Z,13.62
2023-02-18T11:03:42.792Z,13.24
2023-02-18T11:06:42.829Z,13.53
2023-02-18T11:09:26.016Z,13.79
2023-02-18T11:12:07.863Z,13.41
2023-02-18T11:14:47.756Z,13.43
2023-02-18T11:17:27.054Z,13.80
2023-02-18T11:19:59.562Z,13.35
2023-02-18T11:22:30.477Z,13.58
2023-02-18T11:24:59.740Z,13.79
2023-02-18T11:27:55.664Z,13.64
2023-02-18T11:30:33.960Z,13.41
2023-02-18T11:33:15.980Z,13.51
2023-02-18T11:35:49.465Z,13.45
2023-02-18T11:38:36.875Z,13.20
2023-02-18T11:41:09.375Z,13.53
2023-02-18T11:43:37.130Z,13.95
2023-02-18T11:46:17.328Z,13.45
2023-02-18T11:48:44.603Z,13.56
2023-02-18T11:51:27.677Z,13.48
2023-02-18T11:54:20.764Z,13.31
2023-02-18T11:57:01.280Z,13.96
2023-02-18T11:59:31.054Z,13.90
2023-02-18T12:02:07.296Z,14.16
2023-02-18T12:04:53.185Z,13.72
2023-02-18T12:07:23.602Z,14.32
2023-02-18T12:09:59.434Z,13.69
2023-02-18T12:12:38.618Z,14.06
2023-02-18T12:15:05.656Z,14.10
2023-02-18T12:18:10.420Z,14.30
2023-02-18T12:21:00.956Z,14.04
2023-02-18T12:23:34.581Z,14.42
2023-02-18T12:26:19.884Z,14.32
2023-02-18T12:28:49.896Z,13.91
2023-02-18T12:31:38.192Z,14.38
2023-02-18T12:34:17.276Z,14.17
2023-02-18T12:37:26.082Z,13.91
2023-02-18T12:40:27.181Z,14.05
2023-02-18T12:43:03.132Z,14.62
2023-02-18T12:46:00.985Z,14.68
2023-02-18T12:48:53.223Z,14.65
2023-02-18T12:51:37.136Z,14.08
2023-02-18T12:54:14.866Z,14.52
2023-02-18T12:56:52.377Z,15.02
2023-02-18T12:59:34.795Z,14.37
2023-02-18T13:02:29.124Z,14.83
2023-02-18T13:05:07.510Z,14.23
2023-02-18T13:07:54.931Z,15.05
2023-02-18T13:10:25.177Z,14.46
2023-02-18T13:13:07.962Z,15.24
2023-02-18T13:15:44.115Z,14.82
2023-02-18T13:18:28.117Z,14.76
2023-02-18T13:21:53.777Z,14.28
2023-02-18T13:24:38.047Z,14.37
2023-02-18T13:27:20.041Z,14.12
2023-02-18T13:30:14.345Z,13.81
2023-02-18T13:33:15.468Z,14.47
2023-02-18T13:35:49.292Z,14.33
2023-02-18T13:38:45.593Z,13.61
2023-02-18T13:41:12.553Z,14.54
2023-02-18T13:43:39.924Z,13.92
2023-02-18T13:46:18.951Z,13.74
2023-02-18T13:48:52.886Z,13.59
2023-02-18T13:51:46.245Z,14.24
2023-02-18T13:54:14.563Z,14.05
2023-02-18T13:56:44.058Z,13.79
2023-02-18T13:59:17.378Z,13.74
2023-02-18T14:01:48.785Z,13.67
2023-02-18T14:04:37.522Z,14.10
2023-02-18T14:07:41.833Z,13.96
2023-02-18T14:10:18.767Z,13.68
2023-02-18T14:12:57.917Z,13.32
2023-02-18T14:15:24.892Z,13.58
2023-02-18T14:18:24.930Z,13.82
2023-02-18T14:20:52.600Z,13.68
2023-02-18T14:23:19.460Z,13.25
2023-02-18T14:26:11.163Z,13.84
2023-02-18T14:29:00.961Z,13.80
2023-02-18T14:31:44.415Z,13.54
2023-02-18T14:34:28.258Z,13.30
2023-02-18T14:37:13.671Z,13.69
2023-02-18T14:40:02.538Z,13.80
2023-02-18T14:42:47.966Z,13.22
2023-02-18T14:45:23.718Z,13.50
2023-02-18T14:48:19.216Z,13.22
2023-02-18T14:50:50.301Z,14.02
2023-02-18T14:53:22.637Z,13.95
2023-02-18T14:55:52.256Z,13.35
2023-02-18T14:58:57.938Z,14.26
2023-02-18T15:01:30.814Z,13.78
2023-02-18T15:03:58.296Z,13.43
2023-02-18T15:06:37.078Z,13.61
2023-02-18T15:09:15.043Z,13.45
2023-02-18T15:11:49.452Z,13.23
2023-02-18T15:14:22.327Z,13.96
2023-02-18T15:16:49.662Z,13.51
2023-02-18T15:19:19.233Z,13.73
2023-02-18T15:21:48.243Z,13.70
2023-02-18T15:24:24.309Z,13.36
2023-02-18T15:26:52.170Z,13.39
2023-02-18T15:29:22.407Z,14.13
2023-02-18T15:31:49.939Z,14.03
2023-02-18T15:34:29.825Z,13.41
2023-02-18T15:36:57.224Z,13.84
2023-02-18T15:39:24.251Z,14.21
2023-02-18T15:42:06.694Z,13.24
2023-02-18T15:44:35.192Z,13.65
2023-02-18T15:47:04.298Z,14.11
2023-02-18T15:49:35.314Z,13.66
2023-02-18T15:52:02.858Z,13.29
2023-02-18T15:54:30.188Z,13.77
2023-02-18T15:57:01.777Z,13.44
2023-02-18T15:59:39.045Z,13.12
2023-02-18T16:02:09.075Z,13.08
2023-02-18T16:04:43.959Z,13.69
2023-02-18T16:07:34.227Z,13.66
2023-02-18T16:10:46.550Z,13.35
2023-02-18T16:13:15.507Z,13.29
2023-02-18T16:16:19.588Z,14.05
2023-02-18T16:18:46.540Z,13.51
2023-02-18T16:21:19.403Z,13.74
2023-02-18T16:23:57.940Z,13.31
2023-02-18T16:26:40.160Z,13.90
2023-02-18T16:29:16.444Z,13.82
2023-02-18T16:31:43.594Z,14.12
2023-02-18T16:34:10.479Z,13.90
2023-02-18T16:36:37.393Z,13.31
2023-02-18T16:39:04.371Z,14.13
2023-02-18T16:41:31.402Z,13.52
2023-02-18T16:43:58.423Z,14.18
2023-02-18T16:46:25.552Z,13.95
2023-02-18T16:48:56.281Z,13.93
2023-02-18T16:51:30.975Z,13.94
2023-02-18T16:53:57.965Z,13.63
2023-02-18T16:56:26.978Z,13.99
2023-02-18T16:58:53.653Z,13.66
2023-02-18T17:01:34.584Z,13.17
2023-02-18T17:04:02.739Z,13.85
2023-02-18T17:06:30.623Z,13.66
2023-02-18T17:08:58.637Z,13.70
2023-02-18T17:11:33.192Z,14.22
2023-02-18T17:14:00.717Z,14.57
2023-02-18T17:16:27.894Z,14.29
2023-02-18T17:18:54.806Z,13.80
2023-02-18T17:21:24.107Z,13.97
2023-02-18T17:23:51.639Z,13.68
2023-02-18T17:26:27.888Z,14.02
2023-02-18T17:28:58.157Z,14.12
2023-02-18T17:31:31.398Z,13.51
2023-02-18T17:34:05.286Z,13.60
2023-02-18T17:36:34.116Z,14.24
2023-02-18T17:39:02.777Z,13.89
2023-02-18T17:41:29.759Z,14.55
2023-02-18T17:43:57.784Z,13.29
2023-02-18T17:46:28.075Z,13.67
2023-02-18T17:48:55.194Z,13.89
2023-02-18T17:51:30.057Z,13.41
2023-02-18T17:56:42.400Z,13.23
2023-02-18T17:59:09.527Z,13.91
2023-02-18T18:01:36.559Z,13.56
2023-02-18T18:04:10.017Z,13.82
2023-02-18T18:06:36.954Z,14.75
2023-02-18T18:09:04.135Z,13.69
2023-02-18T18:11:31.072Z,13.96
2023-02-18T18:13:58.268Z,13.69
2023-02-18T18:16:26.194Z,13.13
2023-02-18T18:18:53.054Z,13.56
2023-02-18T18:21:29.013Z,13.55
2023-02-18T18:23:55.801Z,13.79
2023-02-18T18:26:22.963Z,13.48
2023-02-18T18:28:49.925Z,13.55
2023-02-18T18:31:21.263Z,13.95
2023-02-18T18:33:50.578Z,13.66
2023-02-18T18:36:19.641Z,13.27
2023-02-18T18:38:46.692Z,13.61
2023-02-18T18:41:18.570Z,13.85
2023-02-18T18:43:49.710Z,13.70
2023-02-18T18:46:17.246Z,13.41
2023-02-18T18:48:44.160Z,13.87
2023-02-18T18:51:25.821Z,13.69
2023-02-18T18:53:52.946Z,13.51
2023-02-18T18:56:20.265Z,13.42
2023-02-18T18:58:47.601Z,13.77
2023-02-18T19:01:17.268Z,13.37
2023-02-18T19:03:46.097Z,13.35
2023-02-18T19:06:16.105Z,13.36
2023-02-18T19:08:46.454Z,13.38
2023-02-18T19:11:15.532Z,13.35
2023-02-18T19:13:42.334Z,13.30
2023-02-18T19:16:28.689Z,13.39
2023-02-18T19:18:55.525Z,13.71
2023-02-18T19:21:22.220Z,13.65
2023-02-18T19:23:49.273Z,14.07
2023-02-18T19:26:17.061Z,13.33
2023-02-18T19:28:45.247Z,13.21
2023-02-18T19:31:13.862Z,13.35
2023-02-18T19:33:40.980Z,12.90
2023-02-18T19:36:11.272Z,12.83
2023-02-18T19:38:38.817Z,12.89
2023-02-18T19:41:17.160Z,13.74
2023-02-18T19:43:44.752Z,14.04
2023-02-18T19:46:14.535Z,13.32
2023-02-18T19:48:41.666Z,14.32
2023-02-18T19:51:09.581Z,13.16
2023-02-18T19:53:37.155Z,12.86
2023-02-18T19:56:07.478Z,12.80
2023-02-18T19:58:35.708Z,13.04
2023-02-18T20:01:02.803Z,12.80
2023-02-18T20:03:29.943Z,12.71
2023-02-18T20:05:57.087Z,13.04
2023-02-18T20:08:23.970Z,13.60
2023-02-18T20:11:00.014Z,13.31
2023-02-18T20:13:27.313Z,13.49
2023-02-18T20:15:54.239Z,13.24
2023-02-18T20:18:21.065Z,13.56
2023-02-18T20:20:51.792Z,12.86
2023-02-18T20:23:18.887Z,13.42
2023-02-18T20:25:47.952Z,12.99
2023-02-18T20:28:15.787Z,12.95
2023-02-18T20:30:48.363Z,13.56
2023-02-18T20:33:18.618Z,13.80
2023-02-18T20:35:45.746Z,13.30
2023-02-18T20:38:13.503Z,13.15
2023-02-18T20:40:40.586Z,13.31
2023-02-18T20:43:07.679Z,12.86
2023-02-18T20:45:34.498Z,13.44
2023-02-18T20:48:01.371Z,13.19
2023-02-18T20:50:28.384Z,13.43
2023-02-18T20:52:56.850Z,13.66
2023-02-18T20:55:24.617Z,13.60
2023-02-18T20:57:51.666Z,13.88
2023-02-18T21:00:18.544Z,12.95
2023-02-18T21:02:45.356Z,13.57
2023-02-18T21:05:12.449Z,14.01
2023-02-18T21:07:39.461Z,13.02
2023-02-18T21:10:06.777Z,13.58
2023-02-18T21:12:33.592Z,12.83
2023-02-18T21:15:00.665Z,12.84
2023-02-18T21:17:27.512Z,13.02
2023-02-18T21:19:54.271Z,13.25
2023-02-18T21:22:20.996Z,13.36
2023-02-18T21:24:50.886Z,13.07
2023-02-18T21:27:17.760Z,13.42
2023-02-18T21:29:44.809Z,12.90
2023-02-18T21:32:11.730Z,13.20
2023-02-18T21:34:38.855Z,14.00
2023-02-18T21:37:05.677Z,13.58
2023-02-18T21:39:32.439Z,13.37
2023-02-18T21:42:00.214Z,13.44
2023-02-18T21:44:40.201Z,13.20
2023-02-18T21:47:09.000Z,14.23
2023-02-18T21:49:35.885Z,13.45
2023-02-18T21:52:08.694Z,13.18
2023-02-18T21:54:41.318Z,13.62
2023-02-18T21:57:20.410Z,13.80
2023-02-18T21:59:47.296Z,14.17
2023-02-18T22:02:19.838Z,14.00
2023-02-18T22:04:47.659Z,13.11
2023-02-18T22:07:15.216Z,13.32
2023-02-18T22:09:42.357Z,13.84
2023-02-18T22:12:09.350Z,12.91
2023-02-18T22:14:36.206Z,13.25
2023-02-18T22:17:03.088Z,13.43
2023-02-18T22:19:29.953Z,13.50
2023-02-18T22:21:56.864Z,13.27
2023-02-18T22:24:23.825Z,12.92
2023-02-18T22:26:51.194Z,13.20
2023-02-18T22:29:19.216Z,13.25
2023-02-18T22:31:47.391Z,13.54
2023-02-18T22:34:14.422Z,13.16
2023-02-18T22:36:41.776Z,13.67
2023-02-18T22:39:10.343Z,13.03
2023-02-18T22:41:37.285Z,13.11
2023-02-18T22:44:07.565Z,13.50
2023-02-18T22:46:36.225Z,13.35
2023-02-18T22:49:04.329Z,12.86
2023-02-18T22:51:33.731Z,12.67
2023-02-18T22:54:02.011Z,13.62
2023-02-18T22:56:29.527Z,13.45
2023-02-18T22:58:57.706Z,13.23
2023-02-18T23:01:35.610Z,13.93
2023-02-18T23:04:14.155Z,13.30
2023-02-18T23:06:43.191Z,13.23
2023-02-18T23:09:17.623Z,13.63
2023-02-18T23:11:57.187Z,13.30
2023-02-18T23:14:35.553Z,14.36
2023-02-18T23:17:18.155Z,13.97
2023-02-18T23:19:51.192Z,13.42
2023-02-18T23:22:33.655Z,13.75
2023-02-18T23:25:01.357Z,13.84
2023-02-18T23:27:31.104Z,13.07
2023-02-18T23:29:58.340Z,13.60
2023-02-18T23:32:31.587Z,13.44
2023-02-18T23:34:59.310Z,13.20
2023-02-18T23:37:45.745Z,13.43
2023-02-18T23:40:14.869Z,14.01
2023-02-18T23:42:41.810Z,13.52
2023-02-18T23:45:08.810Z,13.33
2023-02-18T23:47:35.558Z,13.04
2023-02-18T23:50:03.933Z,13.54
2023-02-18T23:52:30.780Z,14.13
2023-02-18T23:54:57.706Z,13.63
2023-02-18T23:57:24.418Z,13.53
2023-02-18T23:59:51.216Z,12.93
